createdAt,value
2022-11-16T00:00:06.325Z,69.66
2022-11-16T00:02:35.266Z,69.93
2022-11-16T00:05:03.436Z,69.84
2022-11-16T00:07:31.625Z,70.09
2022-11-16T00:10:01.228Z,69.73
2022-11-16T00:12:29.324Z,69.67
2022-11-16T00:14:57.397Z,69.84
2022-11-16T00:17:25.480Z,69.77
2022-11-16T00:19:53.611Z,69.70
2022-11-16T00:22:21.778Z,69.53
2022-11-16T00:24:49.925Z,69.19
2022-11-16T00:27:19.387Z,69.34
2022-11-16T00:29:48.036Z,69.41
2022-11-16T00:32:16.170Z,69.83
2022-11-16T00:34:44.326Z,68.91
2022-11-16T00:37:12.428Z,69.28
2022-11-16T00:39:40.645Z,69.44
2022-11-16T00:42:08.800Z,69.30
2022-11-16T00:44:38.241Z,69.16
2022-11-16T00:47:06.682Z,69.56
2022-11-16T00:49:34.803Z,69.62
2022-11-16T00:52:02.973Z,69.42
2022-11-16T00:54:31.220Z,69.50
2022-11-16T00:56:59.693Z,69.36
2022-11-16T00:59:27.917Z,69.22
2022-11-16T01:01:59.801Z,69.29
2022-11-16T01:04:28.235Z,69.29
2022-11-16T01:06:56.419Z,69.33
2022-11-16T01:09:25.851Z,69.45
2022-11-16T01:12:12.572Z,70.04
2022-11-16T01:14:44.439Z,69.57
2022-11-16T01:17:15.138Z,69.55
2022-11-16T01:19:43.309Z,69.96
2022-11-16T01:22:11.544Z,70.16
2022-11-16T01:24:39.726Z,69.80
2022-11-16T01:27:07.808Z,69.98
2022-11-16T01:29:38.419Z,70.55
2022-11-16T01:32:07.337Z,70.75
2022-11-16T01:34:37.743Z,70.35
2022-11-16T01:37:14.578Z,70.12
2022-11-16T01:39:43.849Z,70.62
2022-11-16T01:42:19.114Z,70.60
2022-11-16T01:45:17.844Z,71.02
2022-11-16T01:47:46.737Z,71.22
2022-11-16T01:50:21.483Z,71.63
2022-11-16T01:52:58.152Z,71.26
2022-11-16T01:55:29.733Z,71.67
2022-11-16T01:58:07.849Z,71.24
2022-11-16T02:00:38.236Z,71.35
2022-11-16T02:03:42.225Z,71.13
2022-11-16T02:07:22.038Z,71.05
2022-11-16T02:10:12.612Z,71.77
2022-11-16T02:13:12.764Z,71.41
2022-11-16T02:15:52.148Z,71.79
2022-11-16T02:18:36.983Z,71.81
2022-11-16T02:21:30.964Z,71.36
2022-11-16T02:24:43.636Z,72.11
2022-11-16T02:27:46.892Z,71.95
2022-11-16T02:30:20.508Z,71.74
2022-11-16T02:32:53.697Z,71.57
2022-11-16T02:35:32.394Z,72.01
2022-11-16T02:38:10.319Z,72.34
2022-11-16T02:40:42.046Z,72.04
2022-11-16T02:43:15.101Z,71.93
2022-11-16T02:45:51.784Z,71.61
2022-11-16T02:48:25.148Z,71.93
2022-11-16T02:50:54.702Z,72.12
2022-11-16T02:53:25.356Z,72.11
2022-11-16T02:55:56.427Z,72.34
2022-11-16T02:58:26.871Z,71.82
2022-11-16T03:01:02.883Z,71.98
2022-11-16T03:03:38.392Z,72.20
2022-11-16T03:06:12.899Z,72.39
2022-11-16T03:08:47.288Z,72.13
2022-11-16T03:11:33.428Z,71.92
2022-11-16T03:14:08.886Z,71.93
2022-11-16T03:16:43.650Z,72.66
2022-11-16T03:19:16.516Z,73.04
2022-11-16T03:21:50.580Z,72.64
2022-11-16T03:24:21.458Z,72.73
2022-11-16T03:27:01.288Z,72.44
2022-11-16T03:29:34.164Z,72.98
2022-11-16T03:32:16.951Z,72.35
2022-11-16T03:34:53.817Z,72.63
2022-11-16T03:37:24.483Z,72.59
2022-11-16T03:39:55.341Z,72.54
2022-11-16T03:42:28.410Z,72.55
2022-11-16T03:44:56.922Z,72.23
2022-11-16T03:47:27.868Z,72.42
2022-11-16T03:49:56.075Z,72.23
2022-11-16T03:52:25.584Z,72.15
2022-11-16T03:54:53.954Z,71.75
2022-11-16T03:57:22.273Z,72.25
2022-11-16T03:59:56.745Z,72.69
2022-11-16T04:02:24.924Z,72.53
2022-11-16T04:05:15.400Z,72.34
2022-11-16T04:08:02.090Z,72.35
2022-11-16T04:10:48.469Z,72.93
2022-11-16T04:13:41.939Z,72.69
2022-11-16T04:16:28.994Z,72.78
2022-11-16T04:19:15.018Z,72.83
2022-11-16T04:22:08.030Z,73.68
2022-11-16T04:24:41.068Z,73.60
2022-11-16T04:27:30.055Z,73.16
2022-11-16T04:30:01.486Z,73.00
2022-11-16T04:32:49.601Z,72.91
2022-11-16T04:35:44.474Z,72.93
2022-11-16T04:38:14.007Z,72.69
2022-11-16T04:40:42.291Z,72.80
2022-11-16T04:43:12.928Z,74.99
2022-11-16T04:46:01.376Z,73.37
2022-11-16T04:48:37.098Z,72.08
2022-11-16T04:51:06.097Z,70.57
2022-11-16T04:53:36.615Z,70.59
2022-11-16T04:56:25.103Z,70.15
2022-11-16T04:58:53.569Z,69.63
2022-11-16T05:01:42.613Z,69.04
2022-11-16T05:04:11.435Z,69.12
2022-11-16T05:06:39.797Z,69.29
2022-11-16T05:09:09.425Z,69.05
2022-11-16T05:11:37.771Z,68.46
2022-11-16T05:14:07.532Z,69.39
2022-11-16T05:16:35.732Z,67.96
2022-11-16T05:19:21.800Z,67.53
2022-11-16T05:21:50.288Z,67.45
2022-11-16T05:24:35.683Z,67.40
2022-11-16T05:27:08.502Z,67.33
2022-11-16T05:29:38.169Z,66.67
2022-11-16T05:32:08.044Z,66.63
2022-11-16T05:34:36.266Z,66.67
2022-11-16T05:37:05.068Z,66.37
2022-11-16T05:39:34.635Z,66.25
2022-11-16T05:42:03.491Z,66.41
2022-11-16T05:44:31.802Z,66.17
2022-11-16T05:47:00.212Z,65.99
2022-11-16T05:49:29.598Z,65.91
2022-11-16T05:51:59.194Z,66.39
2022-11-16T05:54:27.357Z,66.55
2022-11-16T05:56:57.413Z,66.48
2022-11-16T05:59:26.046Z,66.48
2022-11-16T06:01:57.879Z,66.33
2022-11-16T06:04:26.725Z,66.61
2022-11-16T06:06:56.121Z,67.17
2022-11-16T06:09:29.942Z,67.67
2022-11-16T06:12:05.070Z,67.89
2022-11-16T06:14:33.704Z,68.29
2022-11-16T06:17:01.918Z,68.46
2022-11-16T06:19:33.141Z,68.88
2022-11-16T06:22:01.548Z,69.22
2022-11-16T06:24:31.178Z,69.23
2022-11-16T06:27:00.231Z,69.27
2022-11-16T06:29:30.029Z,69.56
2022-11-16T06:31:59.441Z,69.64
2022-11-16T06:34:27.640Z,69.89
2022-11-16T06:36:56.521Z,70.46
2022-11-16T06:39:25.767Z,70.53
2022-11-16T06:41:54.260Z,70.62
2022-11-16T06:44:22.664Z,70.80
2022-11-16T06:46:59.348Z,70.80
2022-11-16T06:49:27.929Z,71.23
2022-11-16T06:51:59.902Z,71.27
2022-11-16T06:54:28.547Z,70.89
2022-11-16T06:56:56.705Z,71.08
2022-11-16T06:59:25.158Z,71.62
2022-11-16T07:01:53.440Z,71.53
2022-11-16T07:04:23.061Z,71.43
2022-11-16T07:06:56.267Z,71.46
2022-11-16T07:09:24.701Z,71.62
2022-11-16T07:12:17.748Z,71.34
2022-11-16T07:14:51.708Z,70.96
2022-11-16T07:17:20.921Z,71.80
2022-11-16T07:19:50.421Z,71.58
2022-11-16T07:22:18.680Z,71.53
2022-11-16T07:24:47.242Z,71.70
2022-11-16T07:27:15.404Z,71.55
2022-11-16T07:29:46.763Z,71.78
2022-11-16T07:32:25.588Z,71.29
2022-11-16T07:35:15.093Z,71.41
2022-11-16T07:37:44.087Z,71.30
2022-11-16T07:40:13.738Z,71.27
2022-11-16T07:42:43.578Z,71.54
2022-11-16T07:45:15.040Z,72.10
2022-11-16T07:47:53.347Z,71.33
2022-11-16T07:50:45.470Z,72.01
2022-11-16T07:53:13.804Z,72.10
2022-11-16T07:55:42.151Z,72.02
2022-11-16T07:58:10.902Z,72.27
2022-11-16T08:00:40.203Z,72.29
2022-11-16T08:03:18.199Z,71.91
2022-11-16T08:06:00.841Z,72.25
2022-11-16T08:08:29.686Z,71.82
2022-11-16T08:11:01.243Z,72.20
2022-11-16T08:13:31.919Z,72.16
2022-11-16T08:16:02.262Z,72.46
2022-11-16T08:18:30.814Z,71.67
2022-11-16T08:21:02.662Z,71.81
2022-11-16T08:23:32.585Z,71.97
2022-11-16T08:26:01.866Z,72.31
2022-11-16T08:28:31.965Z,71.83
2022-11-16T08:31:01.075Z,71.75
2022-11-16T08:33:30.787Z,71.64
2022-11-16T08:36:09.564Z,71.19
2022-11-16T08:38:41.396Z,71.62
2022-11-16T08:41:09.859Z,72.02
2022-11-16T08:43:39.498Z,71.62
2022-11-16T08:46:09.948Z,71.53
2022-11-16T08:48:40.939Z,71.57
2022-11-16T08:51:18.854Z,71.30
2022-11-16T08:53:57.791Z,71.76
2022-11-16T08:56:27.606Z,71.45
2022-11-16T08:58:58.934Z,72.18
2022-11-16T09:01:31.418Z,71.66
2022-11-16T09:04:00.482Z,71.56
2022-11-16T09:06:30.037Z,72.07
2022-11-16T09:08:58.654Z,72.51
2022-11-16T09:11:27.432Z,72.04
2022-11-16T09:13:57.230Z,71.75
2022-11-16T09:16:27.829Z,71.54
2022-11-16T09:18:56.690Z,71.09
2022-11-16T09:21:27.203Z,70.94
2022-11-16T09:23:58.124Z,70.69
2022-11-16T09:26:27.128Z,70.66
2022-11-16T09:28:58.088Z,70.65
2022-11-16T09:31:28.010Z,70.91
2022-11-16T09:33:58.257Z,70.07
2022-11-16T09:36:27.684Z,68.62
2022-11-16T09:42:12.574Z,68.25
2022-11-16T09:45:00.600Z,68.13
2022-11-16T09:47:49.185Z,66.61
2022-11-16T09:50:39.675Z,66.29
2022-11-16T09:53:31.549Z,66.22
2022-11-16T09:56:06.170Z,66.62
2022-11-16T09:58:43.246Z,66.27
2022-11-16T10:01:27.282Z,66.01
2022-11-16T10:04:03.732Z,66.62
2022-11-16T10:06:47.082Z,65.53
2022-11-16T10:09:15.673Z,65.78
2022-11-16T10:12:16.384Z,65.91
2022-11-16T10:15:20.808Z,65.37
2022-11-16T10:18:04.474Z,65.45
2022-11-16T10:21:04.924Z,65.59
2022-11-16T10:23:49.923Z,66.08
2022-11-16T10:26:29.025Z,66.05
2022-11-16T10:29:26.391Z,66.26
2022-11-16T10:32:22.354Z,66.08
2022-11-16T10:34:54.460Z,66.47
2022-11-16T10:38:00.333Z,66.47
2022-11-16T10:40:36.880Z,66.04
2022-11-16T10:43:14.852Z,66.23
2022-11-16T10:45:53.078Z,67.71
2022-11-16T10:48:37.243Z,67.95
2022-11-16T10:51:06.687Z,68.25
2022-11-16T10:53:37.814Z,68.45
2022-11-16T10:56:21.999Z,69.35
2022-11-16T10:58:53.949Z,68.31
2022-11-16T11:01:38.399Z,68.08
2022-11-16T11:04:20.755Z,67.89
2022-11-16T11:06:52.479Z,69.31
2022-11-16T11:09:28.562Z,68.87
2022-11-16T11:12:19.791Z,68.71
2022-11-16T11:15:05.847Z,68.32
2022-11-16T11:17:37.318Z,67.55
2022-11-16T11:20:09.037Z,67.08
2022-11-16T11:22:44.919Z,66.57
2022-11-16T11:25:23.469Z,65.66
2022-11-16T11:27:53.564Z,65.36
2022-11-16T11:30:22.923Z,64.96
2022-11-16T11:32:53.435Z,65.31
2022-11-16T11:35:27.346Z,64.91
2022-11-16T11:38:02.163Z,63.41
2022-11-16T11:40:33.545Z,63.66
2022-11-16T11:43:04.169Z,63.59
2022-11-16T11:45:39.917Z,63.71
2022-11-16T11:48:30.279Z,64.16
2022-11-16T11:51:03.975Z,63.64
2022-11-16T11:53:46.376Z,62.72
2022-11-16T11:56:16.087Z,63.39
2022-11-16T11:58:45.205Z,63.85
2022-11-16T12:01:46.909Z,61.54
2022-11-16T12:04:52.978Z,59.33
2022-11-16T12:07:37.544Z,60.53
2022-11-16T12:10:18.890Z,61.19
2022-11-16T12:13:01.087Z,62.00
2022-11-16T12:15:46.700Z,61.73
2022-11-16T12:18:33.883Z,61.76
2022-11-16T12:21:14.108Z,62.44
2022-11-16T12:24:10.849Z,61.27
2022-11-16T12:26:52.861Z,62.41
2022-11-16T12:29:27.383Z,61.68
2022-11-16T12:32:31.084Z,60.90
2022-11-16T12:35:24.713Z,60.52
2022-11-16T12:38:04.912Z,60.85
2022-11-16T12:40:50.458Z,60.57
2022-11-16T12:43:29.917Z,60.08
2022-11-16T12:46:12.709Z,60.52
2022-11-16T12:49:24.285Z,59.03
2022-11-16T12:52:09.217Z,58.21
2022-11-16T12:58:08.510Z,57.40
2022-11-16T13:00:51.175Z,57.34
2022-11-16T13:03:27.821Z,56.50
2022-11-16T13:06:01.457Z,57.56
2022-11-16T13:08:49.635Z,55.23
2022-11-16T13:11:23.877Z,55.57
2022-11-16T13:13:59.265Z,56.33
2022-11-16T13:16:28.852Z,56.20
2022-11-16T13:18:59.134Z,56.38
2022-11-16T13:21:39.320Z,56.16
2022-11-16T13:24:35.662Z,55.46
2022-11-16T13:27:23.979Z,55.73
2022-11-16T13:30:00.435Z,56.20
2022-11-16T13:32:46.039Z,55.11
2022-11-16T13:35:17.497Z,55.28
2022-11-16T13:37:48.167Z,56.04
2022-11-16T13:40:34.689Z,54.91
2022-11-16T13:43:22.651Z,55.28
2022-11-16T13:46:17.905Z,54.27
2022-11-16T13:48:56.043Z,54.84
2022-11-16T13:51:24.636Z,54.77
2022-11-16T13:56:50.890Z,55.55
2022-11-16T13:59:27.312Z,55.62
2022-11-16T14:02:07.433Z,55.97
2022-11-16T14:04:57.919Z,55.08
2022-11-16T14:07:36.077Z,54.52
2022-11-16T14:10:07.838Z,55.18
2022-11-16T14:12:58.304Z,55.54
2022-11-16T14:15:34.371Z,56.18
2022-11-16T14:18:37.023Z,54.73
2022-11-16T14:21:17.273Z,55.20
2022-11-16T14:24:02.505Z,55.29
2022-11-16T14:26:45.870Z,55.33
2022-11-16T14:29:38.109Z,54.88
2022-11-16T14:32:21.680Z,54.80
2022-11-16T14:34:52.312Z,55.74
2022-11-16T14:37:34.421Z,55.13
2022-11-16T14:40:08.012Z,55.49
2022-11-16T14:43:09.933Z,55.49
2022-11-16T14:45:40.085Z,55.38
2022-11-16T14:48:17.935Z,55.25
2022-11-16T14:51:05.414Z,54.62
2022-11-16T14:53:53.800Z,54.56
2022-11-16T14:56:22.748Z,53.63
2022-11-16T14:58:56.531Z,54.20
2022-11-16T15:01:28.832Z,54.76
2022-11-16T15:04:05.323Z,55.03
2022-11-16T15:06:49.231Z,54.08
2022-11-16T15:09:25.408Z,53.91
2022-11-16T15:12:11.601Z,53.98
2022-11-16T15:14:51.786Z,54.89
2022-11-16T15:17:26.122Z,54.63
2022-11-16T15:20:00.421Z,55.03
2022-11-16T15:22:32.027Z,55.34
2022-11-16T15:25:02.211Z,55.57
2022-11-16T15:27:38.421Z,55.91
2022-11-16T15:30:18.071Z,56.06
2022-11-16T15:32:48.699Z,56.72
2022-11-16T15:35:23.550Z,56.35
2022-11-16T15:38:06.563Z,56.08
2022-11-16T15:40:36.111Z,56.19
2022-11-16T15:43:06.856Z,56.63
2022-11-16T15:45:37.057Z,56.52
2022-11-16T15:48:06.373Z,56.92
2022-11-16T15:50:35.865Z,57.11
2022-11-16T15:53:04.796Z,57.51
2022-11-16T15:55:40.182Z,57.55
2022-11-16T15:58:15.914Z,58.31
2022-11-16T16:00:48.238Z,58.68
2022-11-16T16:03:24.052Z,59.50
2022-11-16T16:05:54.734Z,59.93
2022-11-16T16:08:34.577Z,60.01
2022-11-16T16:11:10.729Z,60.61
2022-11-16T16:13:42.570Z,60.82
2022-11-16T16:16:30.386Z,61.48
2022-11-16T16:19:05.123Z,61.36
2022-11-16T16:21:46.894Z,61.13
2022-11-16T16:24:39.347Z,61.00
2022-11-16T16:27:13.917Z,61.42
2022-11-16T16:29:42.228Z,61.50
2022-11-16T16:32:26.001Z,61.46
2022-11-16T16:34:55.545Z,62.54
2022-11-16T16:37:27.952Z,62.29
2022-11-16T16:39:56.073Z,62.86
2022-11-16T16:42:24.542Z,62.00
2022-11-16T16:44:54.261Z,61.77
2022-11-16T16:47:22.364Z,61.51
2022-11-16T16:49:50.742Z,61.20
2022-11-16T16:52:19.216Z,61.36
2022-11-16T16:54:48.777Z,61.94
2022-11-16T16:57:18.272Z,62.05
2022-11-16T16:59:48.359Z,61.67
2022-11-16T17:02:17.268Z,61.78
2022-11-16T17:04:46.779Z,61.33
2022-11-16T17:07:15.345Z,60.99
2022-11-16T17:09:43.846Z,60.94
2022-11-16T17:12:13.497Z,60.90
2022-11-16T17:14:41.670Z,60.40
2022-11-16T17:17:10.158Z,60.63
2022-11-16T17:19:38.399Z,60.47
2022-11-16T17:22:06.570Z,60.36
2022-11-16T17:24:36.114Z,59.88
2022-11-16T17:27:04.703Z,60.27
2022-11-16T17:29:34.207Z,59.85
2022-11-16T17:32:02.431Z,60.40
2022-11-16T17:34:31.299Z,60.09
2022-11-16T17:36:59.486Z,60.31
2022-11-16T17:39:27.606Z,60.09
2022-11-16T17:41:55.706Z,60.27
2022-11-16T17:44:23.873Z,60.04
2022-11-16T17:46:53.445Z,60.33
2022-11-16T17:49:21.634Z,59.88
2022-11-16T17:51:49.837Z,59.82
2022-11-16T17:54:17.988Z,60.01
2022-11-16T17:56:46.085Z,60.00
2022-11-16T17:59:14.180Z,60.05
2022-11-16T18:01:42.509Z,59.95
2022-11-16T18:04:12.087Z,60.34
2022-11-16T18:06:40.252Z,60.19
2022-11-16T18:09:08.402Z,60.26
2022-11-16T18:11:38.810Z,61.07
2022-11-16T18:14:07.371Z,60.84
2022-11-16T18:16:36.206Z,61.03
2022-11-16T18:19:06.956Z,60.63
2022-11-16T18:21:42.252Z,61.07
2022-11-16T18:24:10.942Z,60.62
2022-11-16T18:26:40.248Z,60.99
2022-11-16T18:29:12.283Z,60.63
2022-11-16T18:31:40.466Z,60.36
2022-11-16T18:34:08.603Z,60.76
2022-11-16T18:36:36.914Z,60.61
2022-11-16T18:39:06.708Z,60.88
2022-11-16T18:41:35.068Z,60.75
2022-11-16T18:44:03.873Z,60.36
2022-11-16T18:46:33.822Z,60.41
2022-11-16T18:49:02.006Z,60.10
2022-11-16T18:51:31.911Z,61.22
2022-11-16T18:54:00.052Z,61.37
2022-11-16T18:56:29.729Z,61.46
2022-11-16T18:58:57.934Z,61.41
2022-11-16T19:01:27.763Z,61.00
2022-11-16T19:03:57.270Z,61.58
2022-11-16T19:06:25.752Z,61.68
2022-11-16T19:08:59.658Z,61.57
2022-11-16T19:11:29.910Z,62.32
2022-11-16T19:14:01.089Z,62.30
2022-11-16T19:16:29.318Z,62.30
2022-11-16T19:18:57.608Z,62.30
2022-11-16T19:21:26.452Z,62.63
2022-11-16T19:23:56.678Z,63.71
2022-11-16T19:26:28.012Z,63.16
2022-11-16T19:28:57.569Z,64.20
2022-11-16T19:31:28.653Z,63.60
2022-11-16T19:33:58.655Z,63.85
2022-11-16T19:36:28.501Z,63.99
2022-11-16T19:38:56.837Z,62.81
2022-11-16T19:41:26.335Z,62.29
2022-11-16T19:43:59.715Z,62.92
2022-11-16T19:46:29.406Z,62.84
2022-11-16T19:48:58.327Z,62.69
2022-11-16T19:51:28.642Z,62.96
2022-11-16T19:53:57.259Z,63.25
2022-11-16T19:56:25.960Z,63.05
2022-11-16T19:58:54.832Z,62.88
2022-11-16T20:01:28.026Z,63.46
2022-11-16T20:03:58.797Z,63.18
2022-11-16T20:06:31.102Z,63.73
2022-11-16T20:09:08.400Z,63.67
2022-11-16T20:11:39.216Z,64.53
2022-11-16T20:14:09.592Z,64.14
2022-11-16T20:16:41.779Z,64.68
2022-11-16T20:19:11.201Z,64.28
2022-11-16T20:21:41.863Z,63.93
2022-11-16T20:24:13.455Z,63.54
2022-11-16T20:26:44.614Z,63.63
2022-11-16T20:29:13.828Z,63.26
2022-11-16T20:31:45.336Z,63.31
2022-11-16T20:34:16.248Z,63.58
2022-11-16T20:36:46.397Z,63.16
2022-11-16T20:39:16.393Z,63.39
2022-11-16T20:41:44.981Z,63.26
2022-11-16T20:44:17.691Z,63.64
2022-11-16T20:46:47.346Z,62.97
2022-11-16T20:49:15.902Z,63.69
2022-11-16T20:51:46.792Z,63.53
2022-11-16T20:54:15.040Z,64.00
2022-11-16T20:56:44.427Z,64.40
2022-11-16T20:59:12.727Z,63.85
2022-11-16T21:01:43.375Z,64.08
2022-11-16T21:04:12.945Z,64.28
2022-11-16T21:06:41.220Z,64.56
2022-11-16T21:09:12.352Z,64.93
2022-11-16T21:11:54.382Z,64.87
2022-11-16T21:14:23.744Z,64.36
2022-11-16T21:16:51.919Z,64.64
2022-11-16T21:19:21.584Z,64.43
2022-11-16T21:21:49.710Z,64.38
2022-11-16T21:24:17.785Z,64.79
2022-11-16T21:26:45.898Z,64.18
2022-11-16T21:29:14.131Z,64.37
2022-11-16T21:31:42.287Z,64.05
2022-11-16T21:34:10.491Z,64.20
2022-11-16T21:36:40.066Z,64.38
2022-11-16T21:39:08.157Z,63.99
2022-11-16T21:41:36.422Z,64.36
2022-11-16T21:44:04.552Z,64.42
2022-11-16T21:46:32.707Z,64.53
2022-11-16T21:49:00.978Z,64.43
2022-11-16T21:51:29.190Z,64.77
2022-11-16T21:53:58.676Z,64.47
2022-11-16T21:56:27.455Z,64.63
2022-11-16T21:58:55.998Z,64.57
2022-11-16T22:01:25.217Z,65.14
2022-11-16T22:04:07.357Z,64.17
2022-11-16T22:06:53.587Z,64.47
2022-11-16T22:09:23.544Z,63.79
2022-11-16T22:11:51.747Z,63.67
2022-11-16T22:14:19.845Z,63.32
2022-11-16T22:16:47.991Z,63.98
2022-11-16T22:19:16.181Z,63.67
2022-11-16T22:21:44.321Z,63.67
2022-11-16T22:24:12.510Z,63.49
2022-11-16T22:26:42.318Z,63.68
2022-11-16T22:29:10.524Z,64.28
2022-11-16T22:31:38.721Z,64.27
2022-11-16T22:34:07.034Z,64.25
2022-11-16T22:36:35.422Z,64.68
2022-11-16T22:39:03.504Z,64.32
2022-11-16T22:41:31.664Z,64.17
2022-11-16T22:44:01.105Z,64.11
2022-11-16T22:46:29.689Z,63.52
2022-11-16T22:48:57.879Z,63.45
2022-11-16T22:51:28.429Z,63.55
2022-11-16T22:53:58.675Z,63.84
2022-11-16T22:56:27.791Z,64.06
2022-11-16T22:58:56.307Z,63.42
2022-11-16T23:01:25.979Z,63.75
2022-11-16T23:03:54.105Z,63.25
2022-11-16T23:06:22.282Z,63.43
2022-11-16T23:08:50.520Z,63.30
2022-11-16T23:11:38.309Z,63.01
2022-11-16T23:14:26.163Z,63.14
2022-11-16T23:16:55.795Z,63.32
2022-11-16T23:19:42.203Z,63.42
2022-11-16T23:22:32.180Z,63.07
2022-11-16T23:25:18.064Z,63.25
2022-11-16T23:27:54.845Z,63.82
2022-11-16T23:30:23.169Z,63.72
2022-11-16T23:32:52.996Z,63.32
2022-11-16T23:35:21.677Z,63.38
2022-11-16T23:37:58.275Z,63.49
2022-11-16T23:40:29.056Z,64.00
2022-11-16T23:43:15.673Z,63.72
2022-11-16T23:45:44.749Z,64.53
2022-11-16T23:48:17.003Z,63.72
2022-11-16T23:50:46.994Z,64.60
2022-11-16T23:53:15.663Z,64.51
2022-11-16T23:55:43.766Z,64.63
2022-11-16T23:58:15.394Z,64.27
